Time;durP1;ratioP1;P1;durP2;ratioP2;P2;SDS_P1;SDS_P2;PMS_P1;PMS_P2;Temp;Humidity;BMP_temperature;BMP_pressure;BME280_temperature;BME280_humidity;BME280_pressure;Samples;Min_cycle;Max_cycle;Signal;HPM_P1;HPM_P2
2021/04/28 00:01:39;;;;;;;8.38;4.00;;;;;;;7.97;41.13;99857.56;5092748;28;20040;-72
2021/04/28 00:04:06;;;;;;;8.20;4.07;;;;;;;7.88;41.27;99853.63;5075476;28;20050;-73
2021/04/28 00:06:32;;;;;;;8.25;4.38;;;;;;;7.64;42.41;99854.97;5075272;28;20089;-73
2021/04/28 00:08:58;;;;;;;8.68;3.92;;;;;;;7.66;42.19;99847.78;5075241;28;20044;-73
2021/04/28 00:11:24;;;;;;;8.10;4.13;;;;;;;7.67;42.50;99852.16;5074892;28;20031;-73
2021/04/28 00:13:50;;;;;;;8.43;4.10;;;;;;;7.61;42.70;99847.16;5093512;28;20040;-73
2021/04/28 00:16:19;;;;;;;7.35;3.53;;;;;;;7.54;42.32;99838.69;5074800;28;20428;-75
2021/04/28 00:18:45;;;;;;;7.85;3.90;;;;;;;7.47;42.95;99830.19;5075970;28;20036;-73
2021/04/28 00:21:11;;;;;;;9.32;3.75;;;;;;;7.32;42.58;99817.75;5074985;28;20040;-73
2021/04/28 00:23:36;;;;;;;8.23;4.00;;;;;;;7.43;42.36;99855.22;5092750;28;20108;-73
2021/04/28 00:26:02;;;;;;;7.93;4.07;;;;;;;7.26;43.03;99844.63;5074928;28;20039;-76
2021/04/28 00:28:27;;;;;;;8.00;4.07;;;;;;;7.21;43.44;99849.31;5092425;28;20029;-75
2021/04/28 00:30:53;;;;;;;8.52;4.25;;;;;;;7.26;43.14;99846.41;5074821;28;20040;-74
2021/04/28 00:33:18;;;;;;;7.05;3.80;;;;;;;7.47;41.18;99843.47;5092502;28;20035;-75
2021/04/28 00:35:44;;;;;;;7.10;3.95;;;;;;;7.50;41.82;99846.91;5093264;28;20024;-74
2021/04/28 00:38:10;;;;;;;5.70;3.50;;;;;;;7.07;42.46;99780.22;5074828;28;20036;-75
2021/04/28 00:40:41;;;;;;;8.40;3.58;;;;;;;7.40;42.54;99831.47;5092372;28;20031;-74
2021/04/28 00:43:08;;;;;;;9.90;4.40;;;;;;;7.27;42.24;99813.66;5092883;28;20450;-74
2021/04/28 00:45:34;;;;;;;8.68;3.70;;;;;;;7.18;42.96;99810.53;5092651;28;20165;-76
2021/04/28 00:48:02;;;;;;;7.25;3.80;;;;;;;6.90;42.90;99765.19;5092949;28;20461;-79
2021/04/28 00:50:37;;;;;;;7.35;3.63;;;;;;;7.07;42.30;99809.41;5074343;28;20354;-77
2021/04/28 00:53:07;;;;;;;6.43;3.40;;;;;;;7.12;41.98;99840.03;5093186;28;20036;-78
2021/04/28 00:55:34;;;;;;;6.22;3.35;;;;;;;7.23;41.94;99842.13;5092594;28;20035;-82
2021/04/28 00:58:00;;;;;;;7.70;3.65;;;;;;;7.24;41.52;99827.94;5092811;28;20035;-76
2021/04/28 01:00:26;;;;;;;5.45;3.22;;;;;;;7.22;42.21;99828.94;5092582;28;20477;-77
2021/04/28 01:02:52;;;;;;;8.18;3.50;;;;;;;7.17;42.06;99834.50;5093139;28;20147;-78
2021/04/28 01:05:18;;;;;;;7.68;3.60;;;;;;;7.06;41.00;99834.22;5092861;28;20103;-78
2021/04/28 01:07:46;;;;;;;5.90;3.30;;;;;;;7.04;41.94;99834.25;5074553;28;20040;-77
2021/04/28 01:10:18;;;;;;;6.93;3.17;;;;;;;6.98;40.84;99829.31;5092561;28;20024;-71
2021/04/28 01:12:44;;;;;;;7.15;3.40;;;;;;;6.99;39.80;99843.41;5092073;28;20540;-71
2021/04/28 01:15:16;;;;;;;9.90;3.28;;;;;;;7.04;39.76;99842.22;5092704;28;20101;-70
2021/04/28 01:17:42;;;;;;;6.63;3.40;;;;;;;7.24;39.66;99853.56;5092494;28;20044;-70
2021/04/28 01:20:12;;;;;;;6.43;3.28;;;;;;;7.13;40.42;99846.19;5074920;28;20046;-71
2021/04/28 01:22:42;;;;;;;6.07;3.15;;;;;;;7.04;39.88;99826.31;5077882;28;20032;-72
2021/04/28 01:25:09;;;;;;;6.78;3.05;;;;;;;7.07;39.64;99858.00;5096219;28;20096;-72
2021/04/28 01:27:38;;;;;;;6.45;3.15;;;;;;;6.95;39.37;99837.41;5095810;28;20063;-72
2021/04/28 01:30:06;;;;;;;7.82;3.22;;;;;;;6.94;40.02;99854.25;5096018;28;20036;-72
2021/04/28 01:32:34;;;;;;;6.88;3.13;;;;;;;7.12;39.70;99857.75;5095724;28;20027;-72
2021/04/28 01:35:00;;;;;;;6.60;3.20;;;;;;;7.21;39.28;99864.38;5096077;28;20115;-71
2021/04/28 01:37:28;;;;;;;6.03;2.83;;;;;;;7.05;39.21;99864.31;5095437;28;20116;-74
2021/04/28 01:39:55;;;;;;;8.13;3.08;;;;;;;6.72;39.46;99801.47;5095848;28;20177;-74
2021/04/28 01:42:21;;;;;;;7.75;3.20;;;;;;;6.98;39.55;99861.13;5095860;28;20119;-74
2021/04/28 01:44:48;;;;;;;7.50;3.17;;;;;;;7.01;40.24;99866.25;5095517;28;20043;-74
2021/04/28 01:47:14;;;;;;;7.95;3.20;;;;;;;6.87;39.69;99866.13;5077752;28;20127;-73
2021/04/28 01:49:42;;;;;;;5.45;2.80;;;;;;;6.68;40.06;99826.44;5095606;28;20121;-74
2021/04/28 01:52:08;;;;;;;5.75;2.92;;;;;;;6.83;39.54;99859.25;5095412;28;20041;-74
2021/04/28 01:54:34;;;;;;;7.75;3.15;;;;;;;6.64;39.86;99831.94;5095604;28;20036;-74
2021/04/28 01:57:00;;;;;;;5.13;2.47;;;;;;;6.77;39.89;99839.22;5095818;28;20039;-74
2021/04/28 01:59:27;;;;;;;6.28;2.83;;;;;;;6.35;40.21;99783.94;5095239;28;20029;-74
2021/04/28 02:01:56;;;;;;;5.30;2.65;;;;;;;6.80;40.05;99860.25;5077176;28;20032;-74
2021/04/28 02:04:22;;;;;;;5.43;2.72;;;;;;;6.83;39.30;99857.44;5077271;28;20389;-74
2021/04/28 02:06:51;;;;;;;4.65;2.70;;;;;;;6.67;39.50;99826.53;5095446;28;20039;-74
2021/04/28 02:09:17;;;;;;;5.00;2.75;;;;;;;6.71;39.57;99826.28;5095500;28;20106;-77
2021/04/28 02:11:42;;;;;;;7.30;2.97;;;;;;;6.79;39.37;99847.09;5076969;28;20787;-77
2021/04/28 02:14:14;;;;;;;5.43;2.65;;;;;;;6.89;38.94;99856.28;5095395;28;20036;-77
2021/04/28 02:16:41;;;;;;;6.75;2.88;;;;;;;6.72;38.60;99825.34;5095167;28;20067;-76
2021/04/28 02:19:09;;;;;;;6.97;2.78;;;;;;;6.83;39.33;99846.84;5077356;28;20118;-76
2021/04/28 02:21:39;;;;;;;6.00;2.90;;;;;;;6.73;38.56;99819.09;5102197;28;20035;-74
2021/04/28 02:24:11;;;;;;;7.90;3.08;;;;;;;6.82;38.73;99837.19;5103239;28;20032;-74
2021/04/28 02:26:36;;;;;;;7.30;2.88;;;;;;;6.81;38.72;99843.41;5095649;28;20078;-74
2021/04/28 02:29:02;;;;;;;5.35;2.70;;;;;;;6.54;39.04;99810.34;5095048;28;20465;-74
2021/04/28 02:31:28;;;;;;;4.72;2.80;;;;;;;6.52;39.39;99817.53;5093806;28;20036;-74
2021/04/28 02:33:53;;;;;;;5.55;2.83;;;;;;;6.61;39.89;99846.22;5060023;28;20389;-74
2021/04/28 02:36:21;;;;;;;7.63;3.17;;;;;;;6.52;39.74;99830.78;5095311;28;20043;-74
2021/04/28 02:38:53;;;;;;;6.28;3.25;;;;;;;6.58;40.14;99843.75;5094851;28;20035;-75
2021/04/28 02:41:22;;;;;;;6.00;2.60;;;;;;;6.54;40.16;99837.72;5076614;28;20473;-75
2021/04/28 02:43:48;;;;;;;7.60;3.05;;;;;;;6.46;41.47;99839.03;5094343;28;20028;-74
2021/04/28 02:46:15;;;;;;;4.63;2.83;;;;;;;6.32;42.04;99847.66;5094129;28;20032;-75
2021/04/28 02:48:46;;;;;;;5.63;3.20;;;;;;;6.37;42.79;99842.13;5094309;28;20071;-74
2021/04/28 02:51:12;;;;;;;5.82;3.50;;;;;;;6.37;42.44;99845.66;5094658;28;20123;-74
2021/04/28 02:53:42;;;;;;;6.72;3.22;;;;;;;6.31;42.59;99851.25;5076026;28;20123;-75
2021/04/28 02:56:07;;;;;;;5.47;3.15;;;;;;;6.14;43.01;99828.22;5076415;28;20381;-76
2021/04/28 02:58:33;;;;;;;6.40;3.22;;;;;;;6.40;42.42;99836.72;5094084;28;20028;-78
2021/04/28 03:01:01;;;;;;;5.40;2.95;;;;;;;5.97;42.50;99796.41;5094395;28;20124;-77
2021/04/28 03:03:27;;;;;;;7.88;3.53;;;;;;;6.08;43.42;99855.03;5094062;28;20032;-78
2021/04/28 03:05:53;;;;;;;6.38;3.30;;;;;;;6.00;44.37;99831.56;5093976;28;20081;-75
2021/04/28 03:08:19;;;;;;;6.97;3.78;;;;;;;5.96;46.35;99832.63;5094571;28;20035;-75
2021/04/28 03:10:47;;;;;;;6.95;3.45;;;;;;;6.04;46.12;99858.75;5093552;28;20487;-71
2021/04/28 03:13:13;;;;;;;8.40;4.05;;;;;;;5.78;47.59;99822.88;5094330;28;20042;-71
2021/04/28 03:15:39;;;;;;;8.60;4.13;;;;;;;5.83;48.37;99851.78;5093820;28;20453;-73
2021/04/28 03:18:04;;;;;;;8.15;4.13;;;;;;;5.28;48.95;99791.69;5093653;28;20062;-72
2021/04/28 03:20:32;;;;;;;8.43;4.20;;;;;;;5.66;48.97;99849.91;5093700;28;20024;-73
2021/04/28 03:22:57;;;;;;;7.05;3.80;;;;;;;5.90;46.44;99856.75;5094058;28;20532;-72
2021/04/28 03:25:23;;;;;;;6.07;3.60;;;;;;;5.71;47.68;99846.16;5093850;28;20128;-72
2021/04/28 03:27:49;;;;;;;9.88;4.22;;;;;;;5.69;49.26;99863.88;5075347;28;20119;-73
2021/04/28 03:30:15;;;;;;;6.90;4.00;;;;;;;5.57;50.05;99872.38;5075537;28;20056;-77
2021/04/28 03:32:40;;;;;;;10.25;4.47;;;;;;;5.53;50.00;99857.56;5058639;28;20043;-77
2021/04/28 03:35:06;;;;;;;7.95;4.05;;;;;;;5.50;50.56;99856.84;5075810;28;20384;-77
2021/04/28 03:37:32;;;;;;;8.43;4.25;;;;;;;5.57;51.11;99868.88;5058678;28;20065;-76
2021/04/28 03:39:57;;;;;;;10.02;4.18;;;;;;;5.52;50.72;99855.88;5075871;28;20063;-76
2021/04/28 03:42:23;;;;;;;7.68;4.63;;;;;;;5.58;50.26;99865.28;5042272;28;20032;-74
2021/04/28 03:44:51;;;;;;;12.10;5.57;;;;;;;5.49;51.51;99871.84;5093009;28;20028;-75
2021/04/28 03:47:19;;;;;;;7.18;4.38;;;;;;;5.58;50.57;99857.34;5093379;28;20035;-76
2021/04/28 03:49:45;;;;;;;8.63;4.38;;;;;;;5.45;50.61;99825.31;5093087;28;20055;-75
2021/04/28 03:52:11;;;;;;;8.05;4.10;;;;;;;5.77;49.58;99870.59;5058996;28;20040;-74
2021/04/28 03:54:37;;;;;;;7.28;4.13;;;;;;;5.80;49.80;99855.44;5075154;28;20028;-75
2021/04/28 03:57:04;;;;;;;10.57;5.05;;;;;;;5.78;50.08;99864.38;5075588;28;20038;-73
2021/04/28 03:59:29;;;;;;;9.35;4.93;;;;;;;5.65;50.83;99867.59;5093310;28;20090;-76
2021/04/28 04:01:55;;;;;;;11.52;5.07;;;;;;;5.53;50.61;99841.69;5075103;28;20032;-73
2021/04/28 04:04:20;;;;;;;10.38;5.10;;;;;;;5.72;50.70;99874.31;5075320;28;20033;-74
2021/04/28 04:06:46;;;;;;;10.57;4.88;;;;;;;5.66;50.69;99864.00;5093005;28;20145;-73
2021/04/28 04:09:11;;;;;;;9.60;4.72;;;;;;;6.04;50.04;99869.34;5093406;28;20039;-74
2021/04/28 04:11:37;;;;;;;9.70;5.22;;;;;;;6.67;47.46;99868.94;5074721;28;20495;-76
2021/04/28 04:14:02;;;;;;;11.57;4.88;;;;;;;7.39;45.91;99869.56;5093113;28;20548;-73
2021/04/28 04:16:28;;;;;;;10.82;5.00;;;;;;;7.74;43.99;99869.47;5074981;28;20080;-76
2021/04/28 04:18:54;;;;;;;10.95;4.90;;;;;;;7.91;44.45;99871.19;5058099;28;20070;-76
2021/04/28 04:21:20;;;;;;;7.88;4.80;;;;;;;8.35;44.09;99867.88;5092856;28;20043;-76
2021/04/28 04:23:45;;;;;;;11.40;4.95;;;;;;;8.65;42.18;99862.59;5092632;28;20036;-78
2021/04/28 04:26:10;;;;;;;10.43;4.93;;;;;;;9.06;41.35;99876.09;5093186;28;20032;-76
2021/04/28 04:28:36;;;;;;;13.40;5.68;;;;;;;9.36;40.53;99873.38;5074754;28;20047;-79
2021/04/28 04:31:02;;;;;;;8.30;5.03;;;;;;;9.38;39.43;99852.88;5092832;28;20036;-78
2021/04/28 04:33:27;;;;;;;7.30;4.60;;;;;;;10.10;37.45;99874.97;5074580;28;20028;-77
2021/04/28 04:35:53;;;;;;;7.25;4.70;;;;;;;10.64;36.06;99872.38;5092547;28;20093;-77
2021/04/28 04:38:18;;;;;;;9.40;4.80;;;;;;;10.81;35.68;99875.63;5092957;28;20047;-73
2021/04/28 04:40:44;;;;;;;9.07;4.68;;;;;;;10.64;35.25;99873.22;5092277;28;20040;-80
2021/04/28 04:43:10;;;;;;;9.95;4.55;;;;;;;10.79;35.17;99882.84;5058001;28;20131;-78
2021/04/28 04:45:36;;;;;;;10.45;4.88;;;;;;;10.09;35.35;99834.13;5086257;28;20063;-77
2021/04/28 04:48:03;;;;;;;10.00;4.75;;;;;;;9.87;36.11;99877.28;5090254;28;20827;-79
2021/04/28 04:50:29;;;;;;;9.45;4.93;;;;;;;9.64;37.20;99877.84;5072722;28;20036;-77
2021/04/28 04:52:55;;;;;;;8.82;4.82;;;;;;;9.40;37.55;99875.78;5071682;28;20047;-74
2021/04/28 04:55:21;;;;;;;10.18;4.80;;;;;;;9.60;37.59;99879.00;5074694;28;20033;-78
2021/04/28 04:57:49;;;;;;;8.88;4.25;;;;;;;9.56;37.00;99877.50;5095117;28;20036;-76
2021/04/28 05:00:15;;;;;;;6.70;4.18;;;;;;;9.50;36.35;99880.53;5096207;28;20043;-76
2021/04/28 05:02:40;;;;;;;11.27;6.03;;;;;;;9.64;37.36;99886.69;5075548;28;20036;-76
2021/04/28 05:05:07;;;;;;;12.18;6.10;;;;;;;9.69;37.37;99879.28;5076256;28;20036;-74
2021/04/28 05:07:32;;;;;;;9.32;4.70;;;;;;;9.72;36.68;99873.78;5060270;28;20033;-72
2021/04/28 05:09:58;;;;;;;9.20;4.20;;;;;;;9.49;36.50;99866.38;5057462;28;20158;-71
2021/04/28 05:12:23;;;;;;;12.98;4.55;;;;;;;9.42;36.75;99865.88;5075653;28;20037;-75
2021/04/28 05:14:49;;;;;;;8.40;4.55;;;;;;;9.55;36.81;99852.66;5057532;28;20477;-75
2021/04/28 05:17:15;;;;;;;9.25;4.60;;;;;;;9.87;36.05;99845.31;5057834;28;20147;-73
2021/04/28 05:19:41;;;;;;;8.07;4.50;;;;;;;9.44;36.24;99804.56;5057448;28;20036;-73
2021/04/28 05:22:06;;;;;;;7.32;3.80;;;;;;;9.85;35.29;99868.56;5058105;28;20043;-73
2021/04/28 05:24:32;;;;;;;11.25;4.55;;;;;;;10.09;35.63;99863.44;5075846;28;20067;-72
2021/04/28 05:26:58;;;;;;;8.77;4.30;;;;;;;10.41;35.17;99871.19;5075843;28;20024;-72
2021/04/28 05:29:23;;;;;;;9.55;4.40;;;;;;;10.69;34.47;99844.41;5059007;28;20405;-72
2021/04/28 05:31:49;;;;;;;7.88;4.18;;;;;;;11.47;33.57;99858.59;5083805;28;20033;-73
2021/04/28 05:34:14;;;;;;;9.77;5.28;;;;;;;11.62;33.31;99847.81;5078704;28;20092;-73
2021/04/28 05:36:40;;;;;;;8.88;4.47;;;;;;;12.45;31.87;99846.22;5075978;28;20040;-75
2021/04/28 05:39:05;;;;;;;8.68;4.50;;;;;;;12.84;31.83;99854.91;5075942;28;20047;-73
2021/04/28 05:41:31;;;;;;;7.70;4.40;;;;;;;12.63;31.38;99841.28;5076131;28;20040;-72
2021/04/28 05:43:57;;;;;;;7.57;4.25;;;;;;;12.21;31.36;99826.63;5057390;28;20028;-73
2021/04/28 05:46:26;;;;;;;9.20;4.90;;;;;;;12.42;31.47;99833.06;5075632;28;20044;-72
2021/04/28 05:48:52;;;;;;;10.45;4.93;;;;;;;13.04;30.80;99838.16;5074941;28;20032;-73
2021/04/28 05:51:18;;;;;;;8.57;5.28;;;;;;;12.97;30.99;99842.28;5075427;28;20039;-72
2021/04/28 05:53:43;;;;;;;8.18;4.60;;;;;;;12.86;30.96;99834.22;5075191;28;20119;-73
2021/04/28 05:56:09;;;;;;;8.63;4.90;;;;;;;12.90;31.11;99835.69;5075432;28;20111;-72
2021/04/28 05:58:35;;;;;;;10.07;5.25;;;;;;;13.80;30.22;99846.53;5040834;28;20034;-73
2021/04/28 06:01:01;;;;;;;7.80;4.40;;;;;;;13.77;29.90;99844.97;5074866;28;20028;-73
2021/04/28 06:03:27;;;;;;;8.32;4.88;;;;;;;13.30;30.14;99782.59;5075007;28;20039;-73
2021/04/28 06:05:52;;;;;;;8.68;4.90;;;;;;;13.88;29.60;99844.09;5056987;28;20377;-73
2021/04/28 06:08:18;;;;;;;11.40;4.75;;;;;;;13.77;28.92;99819.97;5075201;28;20025;-73
2021/04/28 06:10:43;;;;;;;8.77;5.13;;;;;;;14.19;28.88;99810.31;5074916;28;20028;-73
2021/04/28 06:13:12;;;;;;;9.10;4.90;;;;;;;14.74;28.57;99832.56;5024006;28;20033;-73
2021/04/28 06:15:38;;;;;;;9.45;4.65;;;;;;;14.02;28.53;99857.25;5074814;28;20121;-72
2021/04/28 06:18:08;;;;;;;9.70;5.03;;;;;;;14.49;28.79;99844.53;5056321;28;20119;-72
2021/04/28 06:20:34;;;;;;;7.18;4.78;;;;;;;14.99;27.85;99826.00;5075216;28;20086;-73
2021/04/28 06:23:01;;;;;;;8.20;4.57;;;;;;;15.29;27.48;99850.22;5056839;28;20043;-73
2021/04/28 06:25:26;;;;;;;11.27;4.63;;;;;;;15.70;26.94;99845.78;5040500;28;20089;-73
2021/04/28 06:27:52;;;;;;;7.55;4.50;;;;;;;15.49;26.57;99832.38;5040044;28;20507;-74
2021/04/28 06:30:18;;;;;;;9.32;4.97;;;;;;;15.39;26.92;99835.00;5074799;28;20405;-73
2021/04/28 06:32:45;;;;;;;7.80;4.53;;;;;;;15.46;26.81;99855.00;5057212;28;20040;-72
2021/04/28 06:35:11;;;;;;;13.20;5.20;;;;;;;15.45;26.72;99844.38;5074752;28;20091;-73
2021/04/28 06:37:37;;;;;;;11.73;4.93;;;;;;;15.10;27.62;99842.88;5057042;28;20059;-73
2021/04/28 06:40:08;;;;;;;11.38;5.20;;;;;;;15.34;27.98;99839.06;5073852;28;20469;-72
2021/04/28 06:42:33;;;;;;;9.13;4.60;;;;;;;16.36;25.97;99835.38;5056578;28;20099;-72
2021/04/28 06:44:59;;;;;;;7.05;4.47;;;;;;;16.05;25.94;99815.78;5056191;28;20039;-73
2021/04/28 06:47:25;;;;;;;6.82;4.50;;;;;;;16.40;25.98;99831.41;5040034;28;20043;-72
2021/04/28 06:49:53;;;;;;;7.82;4.50;;;;;;;15.51;27.13;99821.47;5039803;28;20036;-74
2021/04/28 06:52:19;;;;;;;7.35;4.50;;;;;;;16.07;26.58;99839.84;5074180;28;20037;-73
2021/04/28 06:54:44;;;;;;;10.55;4.45;;;;;;;15.32;26.87;99788.13;5074372;28;20385;-73
2021/04/28 06:57:10;;;;;;;8.30;4.60;;;;;;;15.00;27.21;99833.91;5074048;28;20035;-72
2021/04/28 06:59:35;;;;;;;7.25;4.30;;;;;;;14.06;28.33;99847.13;5074246;28;20029;-71
2021/04/28 07:02:01;;;;;;;7.32;3.97;;;;;;;13.35;29.53;99833.13;5073917;28;20409;-71
2021/04/28 07:04:26;;;;;;;9.50;4.55;;;;;;;12.89;30.02;99852.72;5056342;28;20067;-73
2021/04/28 07:06:52;;;;;;;8.60;4.22;;;;;;;13.06;30.26;99825.50;5073835;28;20474;-73
2021/04/28 07:09:18;;;;;;;7.63;4.10;;;;;;;12.90;30.63;99843.72;5056364;28;20036;-73
2021/04/28 07:11:44;;;;;;;8.82;4.70;;;;;;;12.33;31.57;99821.22;5073955;28;20204;-74
2021/04/28 07:14:10;;;;;;;7.82;4.25;;;;;;;12.51;31.28;99843.06;5056054;28;20359;-73
2021/04/28 07:16:36;;;;;;;9.40;4.47;;;;;;;12.57;31.72;99842.63;5073601;28;20051;-73
2021/04/28 07:19:01;;;;;;;7.10;4.20;;;;;;;12.48;31.84;99837.97;5055102;28;20059;-72
2021/04/28 07:21:27;;;;;;;10.93;4.63;;;;;;;12.68;31.12;99819.56;5055769;28;20051;-72
2021/04/28 07:23:52;;;;;;;7.72;4.30;;;;;;;12.98;31.15;99829.75;5073510;28;20051;-72
2021/04/28 07:26:18;;;;;;;9.13;4.50;;;;;;;12.89;30.81;99785.78;5073443;28;20473;-72
2021/04/28 07:28:49;;;;;;;8.57;4.18;;;;;;;13.14;30.88;99816.88;5073613;28;20029;-72
2021/04/28 07:31:16;;;;;;;7.30;4.07;;;;;;;13.00;30.68;99841.19;5073937;28;20401;-72
2021/04/28 07:33:42;;;;;;;7.57;3.83;;;;;;;13.19;30.60;99846.84;5073641;28;20037;-72
2021/04/28 07:36:08;;;;;;;9.13;4.35;;;;;;;13.22;30.14;99840.41;5073356;28;20033;-73
2021/04/28 07:38:34;;;;;;;8.07;4.30;;;;;;;13.41;29.61;99836.19;5073492;28;20401;-72
2021/04/28 07:41:00;;;;;;;12.40;7.05;;;;;;;13.46;29.20;99835.81;5073203;28;20032;-72
2021/04/28 07:43:26;;;;;;;15.88;9.52;;;;;;;13.40;29.16;99794.28;5055360;28;20033;-73
2021/04/28 07:45:51;;;;;;;8.02;5.38;;;;;;;14.01;29.39;99836.78;5072816;28;20028;-72
2021/04/28 07:48:17;;;;;;;7.22;3.95;;;;;;;13.90;28.45;99815.38;5055626;28;20518;-73
2021/04/28 07:50:44;;;;;;;7.90;3.85;;;;;;;14.13;28.24;99832.25;5055391;28;20466;-72
2021/04/28 07:53:10;;;;;;;8.07;3.70;;;;;;;14.14;28.69;99823.22;5055394;28;20064;-73
2021/04/28 07:55:36;;;;;;;9.70;5.03;;;;;;;14.34;28.72;99833.16;5055555;28;20075;-72
2021/04/28 07:58:03;;;;;;;5.90;3.60;;;;;;;14.30;27.90;99808.44;5055083;28;20043;-72
2021/04/28 08:00:28;;;;;;;6.70;3.67;;;;;;;14.45;27.76;99837.69;5055195;28;20477;-72
2021/04/28 08:02:54;;;;;;;8.00;3.47;;;;;;;14.32;27.28;99844.03;5073104;28;20036;-73
2021/04/28 08:05:20;;;;;;;7.22;3.53;;;;;;;14.39;27.31;99839.03;5055393;28;20082;-72
2021/04/28 08:07:45;;;;;;;9.35;3.85;;;;;;;14.46;27.18;99834.00;5073130;28;20446;-73
2021/04/28 08:10:11;;;;;;;5.63;3.15;;;;;;;14.43;26.50;99818.16;5054701;28;20035;-74
2021/04/28 08:12:37;;;;;;;7.28;3.58;;;;;;;14.12;27.07;99798.38;5073178;28;20444;-72
2021/04/28 08:15:04;;;;;;;6.80;3.60;;;;;;;14.51;26.92;99837.19;5072966;28;20150;-73
2021/04/28 08:17:30;;;;;;;6.18;3.42;;;;;;;14.48;26.61;99843.66;5055247;28;20056;-73
2021/04/28 08:19:59;;;;;;;6.40;3.38;;;;;;;14.25;27.18;99847.34;5054820;28;20047;-72
2021/04/28 08:22:25;;;;;;;7.47;3.53;;;;;;;14.31;26.85;99799.41;5072802;28;20112;-72
2021/04/28 08:24:52;;;;;;;6.35;3.28;;;;;;;14.46;26.63;99828.66;5072937;28;20564;-72
2021/04/28 08:27:18;;;;;;;6.68;3.42;;;;;;;14.47;26.40;99849.13;5073206;28;20366;-72
2021/04/28 08:29:43;;;;;;;6.15;3.55;;;;;;;14.60;26.71;99841.78;5074502;28;20039;-73
2021/04/28 08:32:08;;;;;;;5.70;3.42;;;;;;;14.14;27.16;99781.16;5058711;28;20036;-72
2021/04/28 08:34:34;;;;;;;7.35;3.58;;;;;;;14.38;27.52;99848.06;5076914;28;20046;-73
2021/04/28 08:37:00;;;;;;;6.90;3.80;;;;;;;14.55;27.56;99850.22;5042580;28;20036;-72
2021/04/28 08:39:25;;;;;;;5.97;3.45;;;;;;;14.35;27.08;99783.91;5076855;28;20089;-72
2021/04/28 08:41:51;;;;;;;9.38;3.50;;;;;;;14.65;27.09;99815.41;5058753;28;20040;-73
2021/04/28 08:44:17;;;;;;;7.43;3.63;;;;;;;14.77;27.13;99843.91;5058678;28;20068;-73
2021/04/28 08:46:43;;;;;;;8.52;3.45;;;;;;;14.92;27.27;99840.91;5058960;28;20546;-72
2021/04/28 08:49:09;;;;;;;7.22;3.88;;;;;;;14.97;27.47;99827.97;5076493;28;20033;-73
2021/04/28 08:51:36;;;;;;;6.63;3.65;;;;;;;15.29;27.10;99834.09;5041876;28;20123;-72
2021/04/28 08:54:02;;;;;;;9.85;4.20;;;;;;;15.03;27.37;99828.25;5041971;28;20036;-73
2021/04/28 08:56:28;;;;;;;8.98;4.20;;;;;;;15.15;27.04;99835.28;5076563;28;20037;-72
2021/04/28 08:58:55;;;;;;;7.53;3.92;;;;;;;15.09;27.00;99838.50;5076548;28;20144;-73
2021/04/28 09:01:30;;;;;;;7.13;3.78;;;;;;;15.37;26.79;99828.91;5076419;28;20048;-73
2021/04/28 09:04:00;;;;;;;6.65;3.63;;;;;;;15.44;26.33;99837.28;5076292;28;20032;-73
2021/04/28 09:06:32;;;;;;;8.50;4.03;;;;;;;15.30;26.45;99833.09;5076333;28;20078;-72
2021/04/28 09:09:19;;;;;;;7.78;3.92;;;;;;;15.39;26.55;99836.84;5076230;28;20033;-74
2021/04/28 09:11:45;;;;;;;10.57;4.10;;;;;;;15.57;27.07;99834.38;5081379;28;20033;-74
2021/04/28 09:14:44;;;;;;;7.15;4.00;;;;;;;15.76;26.77;99829.13;5082647;28;20032;-72
2021/04/28 09:17:10;;;;;;;7.57;3.78;;;;;;;15.96;27.07;99822.84;5061999;28;20080;-73
2021/04/28 09:19:40;;;;;;;7.50;3.78;;;;;;;15.78;26.71;99802.94;5058378;28;20075;-72
2021/04/28 09:22:09;;;;;;;10.52;4.32;;;;;;;15.97;26.75;99808.38;5075962;28;20087;-74
2021/04/28 09:24:51;;;;;;;6.20;4.40;;;;;;;16.05;26.80;99821.16;5076190;28;20032;-74
2021/04/28 09:27:25;;;;;;;7.05;4.20;;;;;;;16.23;26.62;99816.81;5076198;28;20088;-72
2021/04/28 09:29:53;;;;;;;9.18;4.75;;;;;;;16.16;26.79;99763.69;5075641;28;20377;-73
2021/04/28 09:32:19;;;;;;;9.43;4.45;;;;;;;16.13;26.82;99807.88;5058030;28;20044;-74
2021/04/28 09:34:44;;;;;;;6.47;3.92;;;;;;;16.38;26.52;99798.41;5075918;28;20465;-73
2021/04/28 09:37:15;;;;;;;8.02;4.10;;;;;;;16.25;25.62;99792.44;5075735;28;20033;-73
2021/04/28 09:39:45;;;;;;;8.00;4.43;;;;;;;16.39;25.80;99800.09;5075980;28;20041;-72
2021/04/28 09:42:13;;;;;;;10.65;4.70;;;;;;;16.30;25.91;99795.56;5075037;28;20070;-73
2021/04/28 09:44:44;;;;;;;9.38;4.60;;;;;;;16.54;25.62;99796.00;5057593;28;20135;-75
2021/04/28 09:47:12;;;;;;;9.35;4.43;;;;;;;16.69;25.18;99792.91;5075513;28;20037;-74
2021/04/28 09:49:45;;;;;;;7.88;4.05;;;;;;;16.59;25.03;99788.34;5075689;28;20032;-73
2021/04/28 09:52:11;;;;;;;;;;;;;;;16.44;24.75;99800.53;5075395;28;20033;-73
2021/04/28 09:54:36;;;;;;;8.95;4.13;;;;;;;16.20;25.03;99798.22;5057575;28;19913;-73
2021/04/28 09:57:02;;;;;;;8.23;4.18;;;;;;;16.45;25.14;99769.94;5074895;28;20044;-73
2021/04/28 09:59:44;;;;;;;9.00;4.40;;;;;;;16.76;25.08;99800.28;5075451;28;20383;-72
2021/04/28 10:02:15;;;;;;;10.23;4.55;;;;;;;16.96;24.96;99789.50;5057131;28;20126;-73
2021/04/28 10:04:40;;;;;;;7.57;4.60;;;;;;;16.97;24.72;99783.09;5057761;28;20481;-73
2021/04/28 10:07:06;;;;;;;10.32;3.95;;;;;;;17.11;24.38;99788.91;5075016;28;20036;-72
2021/04/28 10:09:39;;;;;;;8.20;4.18;;;;;;;17.30;24.61;99788.00;5075326;28;20033;-73
2021/04/28 10:12:06;;;;;;;8.32;4.63;;;;;;;17.33;24.38;99782.31;5056984;28;20113;-72
2021/04/28 10:14:33;;;;;;;7.22;4.55;;;;;;;17.51;25.02;99790.50;5056946;28;20371;-72
2021/04/28 10:17:02;;;;;;;8.95;4.78;;;;;;;17.28;25.06;99754.13;5075068;28;20193;-72
2021/04/28 10:19:28;;;;;;;8.23;4.32;;;;;;;17.82;24.50;99782.16;5075040;28;20035;-73
2021/04/28 10:22:08;;;;;;;8.52;4.38;;;;;;;17.66;23.71;99755.78;5057075;28;20037;-71
2021/04/28 10:24:36;;;;;;;7.90;4.65;;;;;;;17.85;23.91;99771.03;5057524;28;20047;-72
2021/04/28 10:27:02;;;;;;;8.27;4.35;;;;;;;17.77;24.19;99777.22;5056642;28;20033;-73
2021/04/28 10:29:30;;;;;;;9.10;4.57;;;;;;;17.16;24.03;99715.69;5074921;28;20067;-72
2021/04/28 10:31:57;;;;;;;8.23;4.25;;;;;;;17.67;23.74;99771.00;5074286;28;20507;-72
2021/04/28 10:34:46;;;;;;;9.45;4.18;;;;;;;17.68;24.54;99784.31;5074595;28;20032;-73
2021/04/28 10:37:12;;;;;;;8.68;4.38;;;;;;;17.77;24.75;99761.03;5056472;28;20028;-73
2021/04/28 10:39:38;;;;;;;7.65;4.15;;;;;;;17.60;24.66;99730.28;5056974;28;20119;-73
2021/04/28 10:42:22;;;;;;;11.63;4.55;;;;;;;17.71;24.73;99775.94;5056691;28;20102;-73
2021/04/28 10:44:48;;;;;;;8.35;4.38;;;;;;;17.51;24.90;99763.53;5059318;28;20496;-72
2021/04/28 10:47:28;;;;;;;10.82;4.72;;;;;;;17.45;24.76;99769.50;5074069;28;20152;-72
2021/04/28 10:50:15;;;;;;;8.05;4.60;;;;;;;17.29;25.70;99715.38;5074239;28;20473;-73
2021/04/28 10:52:59;;;;;;;9.43;4.60;;;;;;;17.13;25.46;99748.34;5073621;28;20474;-72
2021/04/28 10:55:43;;;;;;;9.13;4.68;;;;;;;16.88;25.79;99752.50;5074003;28;20029;-72
2021/04/28 10:58:24;;;;;;;8.95;4.65;;;;;;;16.74;26.57;99758.34;5074041;28;20039;-73
2021/04/28 11:01:07;;;;;;;11.27;7.00;;;;;;;16.74;26.19;99764.56;5074093;28;20036;-72
2021/04/28 11:03:42;;;;;;;7.93;4.65;;;;;;;16.71;26.36;99764.03;5056413;28;20142;-72
2021/04/28 11:06:20;;;;;;;7.82;4.30;;;;;;;16.39;26.61;99748.97;5073637;28;20395;-73
2021/04/28 11:08:49;;;;;;;11.52;4.30;;;;;;;16.21;27.00;99750.66;5073898;28;20029;-73
2021/04/28 11:11:42;;;;;;;8.40;4.43;;;;;;;16.43;27.50;99760.31;5073365;28;20539;-73
2021/04/28 11:14:24;;;;;;;10.00;4.63;;;;;;;16.65;27.33;99751.94;5069616;28;20123;-72
2021/04/28 11:16:52;;;;;;;8.82;4.57;;;;;;;16.81;26.88;99717.22;5073305;28;20054;-73
2021/04/28 11:19:20;;;;;;;6.88;4.70;;;;;;;16.88;26.51;99744.41;5073545;28;20377;-73
2021/04/28 11:22:06;;;;;;;9.73;4.75;;;;;;;16.94;27.09;99746.53;5073863;28;20040;-72
2021/04/28 11:25:04;;;;;;;9.68;4.63;;;;;;;16.92;26.85;99753.94;5073522;28;20120;-72
2021/04/28 11:27:57;;;;;;;9.95;4.22;;;;;;;17.11;27.17;99751.19;5073459;28;20042;-72
2021/04/28 11:30:32;;;;;;;9.52;4.40;;;;;;;17.03;26.98;99734.03;5072990;28;20474;-72
2021/04/28 11:33:28;;;;;;;8.73;4.50;;;;;;;16.96;26.86;99741.84;5073593;28;20127;-73
2021/04/28 11:35:54;;;;;;;9.35;4.70;;;;;;;16.76;27.42;99735.66;5073670;28;20024;-73
2021/04/28 11:38:34;;;;;;;7.70;4.13;;;;;;;16.67;27.53;99724.88;5073265;28;20454;-73
2021/04/28 11:41:08;;;;;;;7.82;4.28;;;;;;;16.70;27.51;99733.56;5073490;28;20384;-73